ESSV

Visby Airport

Visby, Sweden
METAR ESSV 212250Z AUTO 26006KT 9999 NCD 07/03 Q1012
Observed Flight Rules
Apr-21 @ 22:50 UTC (15 minutes ago) Visual Flight Rules
Wind Visibility Clouds
260° at 6 knots 10,000+ meters
  • Clear skies
Temperatures Readings
Current 7°C / 45°F
Dewpoint 3°C / 37°F
Humidity 76%
Altimeter 29.88" Hg
Pressure 1012 hPa
Elevation 47
METAR ESSV 212250Z AUTO 26006KT 9999 NCD 07/03 Q1012
Observed Flight Rules
Apr-21 @ 22:50 UTC
(15 minutes ago)
VFR
Wind Visibility
260° at 6 knots 10,000+ meters
Clouds
  • Clear skies
Temperature Dewpoint
7°C / 45°F 3°C / 37°F
Humidity Altimeter Pressure
76% 29.88" Hg 1012 hPa